SBRJ METAR and TAF | Updated Today

SBRJ METAR

Santos Dumont Airport

Observation time: 40 min. ago

SBRJ 251800Z 17005KT 9999 FEW025 BKN080 25/18 Q1021

Need help? Read our tutorial on how to read METARs or read the parsed version below.

Santos Dumont Airport (SBRJ) METAR

  • Weather conditions on Wed, 25 May 2022 18:00:00 +0000 (40 min. ago):
  • Present conditions: Dry
  • Clouds: A few at 762 meters; broken sky at 2438 meters
  • Visibility: Greater than 10 km
  • Wind: 170 degrees at 5 knots
  • Temperature: 25 celsius
  • Dew point: 18 celsius
  • Pressure: 1021 millibars
  • Remarks: None


Useful to know...

SBRJ TAF

Santos Dumont Airport

TAF SBRJ 251530Z 2518/2606 17013KT 9999 FEW025 TX25/2518Z TN20/2606Z BECMG 2521/2523 11007KT CAVOK BECMG 2601/2603 03005KT RMK PHN
Observation time: 3:10 hr. ago
Need help? Read our tutorial on how to read TAFs or read the parsed version below.

Parsed version of TAF for Santos Dumont Airport (SBRJ)

  • From 25 May at 18:00 UTC, to day 26 of the month at 06:00 UTC
  • Clouds: A few at 762 meters
  • Visibility: Greater than 10 km
  • Wind: 170 degrees at 13
  • Expected to arise soon, from 25 May at 21:00 UTC, to day 25 of the month at 23:00 UTC
  • Visibility: Greater than 10 km
  • Wind: 110 degrees at 7
  • Expected to arise soon, from 26 May at 01:00 UTC, to day 26 of the month at 03:00 UTC
  • Wind: 30 degrees at 5